METAR Analyzer

一覧表示

Hello, Guest. (Login)

RJCC/CTS  -  札幌/新千歳

観測日時
2021-04-13 22:00 (UTC) (40分前)
気温
5
露点
1
湿数
4
相対湿度
75.3%
QNH
1008hPa
推定現地気圧
1005.0hPa
推定海面気圧
1008.1hPa
体感温度
-6.2
(無風時)
8.6
HI
3.5
気温前日比
-6
体感温度前日比
-4.8
HI前日比
-6.5
水平視程
>10000m
鉛直視程
データなし
雲底高度
Unknown
V/I
判定不可
RVR
No RVR data
卓越風
8kt from 10°
ガスト
No gust
降水
報告なし
その他の天気
報告なし
少しの雲 @ 1000ft AGL / 散在する雲 @ 3000ft AGL / 隙間のある雲 @ 不明な高さ

RJCC 132200Z 01008KT 9999 FEW010 SCT030 BKN/// 05/01 Q1008

RJTT/HND  -  東京/羽田

観測日時
2021-04-13 22:00 (UTC) (40分前)
気温
18
露点
18
湿数
0
相対湿度
100%
QNH
1006.1hPa
推定現地気圧
1005.4hPa
推定海面気圧
1006.1hPa
体感温度
9
(無風時)
19.9
HI
18.5
気温前日比
+4
体感温度前日比
+6.8
HI前日比
+4.8
水平視程
2000m
鉛直視程
データなし
雲底高度
600ft AGL / 一時 500ft AGL
V/I
SVMC (SVFR)
RVR (R16R)
1900m ()
RVR (R22)
>2000m ()
RVR (R16L)
1200m ~ 2000m ()
RVR (R23)
>2000m ()
卓越風
12kt from 210°
ガスト
No gust
降水
強いしゅう雨性の雨
その他の天気
もや
少しの(1/8) 層雲 @ 300ft AGL / 隙間のある(5/8) 層雲 @ 600ft AGL / 隙間のある(7/8) 積雲 @ 1000ft AGL

RJTT 132200Z 21012KT 2000 R16R/1900D R22/P2000N R16L/1200VP2000N R23/P2000N +SHRA BR FEW003 BKN006 BKN010 18/18 Q1006 TEMPO FEW003 BKN005 RMK 1ST003 5ST006 7CU010 A2971

RJAA/NRT  -  東京/成田

観測日時
2021-04-13 22:00 (UTC) (40分前)
気温
18
露点
18
湿数
0
相対湿度
100%
QNH
1006.8hPa
推定現地気圧
1005.5hPa
推定海面気圧
1006.8hPa
体感温度
10.8
(無風時)
19.9
HI
18.5
気温前日比
+4
体感温度前日比
+5.8
HI前日比
+4.8
水平視程
5000m / 一時 3000m
鉛直視程
データなし
雲底高度
600ft AGL / 一時 500ft AGL
V/I
SVMC (SVFR)
RVR (R16R)
2000m ()
RVR (R16L)
2000m ()
卓越風
7kt from 180°
ガスト
No gust
降水
弱いしゅう雨性の雨
降水 (一時)
中程度のしゅう雨性の雨
その他の天気
もや
その他の天気 (一時)
もや
少しの(1/8) 層雲 @ 300ft AGL / 隙間のある(7/8) 層雲 @ 600ft AGL

RJAA 132200Z 18007KT 5000 R16R/2000N R16L/2000N -SHRA BR FEW003 BKN006 18/18 Q1006 TEMPO 3000 SHRA BR FEW003 BKN005 RMK 1ST003 7ST006 A2973

RJGG/NGO  -  名古屋/中部

観測日時
2021-04-13 22:00 (UTC) (40分前)
気温
15
露点
15
湿数
0
相対湿度
100%
QNH
1007.1hPa
推定現地気圧
1006.6hPa
推定海面気圧
1007.1hPa
体感温度
9.9
(無風時)
17.1
HI
15.2
気温前日比
+2
体感温度前日比
+9.4
HI前日比
+2.4
水平視程
>10000m
鉛直視程
データなし
雲底高度
2000ft AGL
V/I
VMC (VFR)
RVR
No RVR data
卓越風
3kt from 300°
ガスト
No gust
降水
報告なし
その他の天気
報告なし
少しの(1/8) 層雲 @ 500ft AGL / 散在する(3/8) 積雲 @ 1000ft AGL / 隙間のある(6/8) 積雲 @ 2000ft AGL

RJGG 132200Z 30003KT 9999 FEW005 SCT010 BKN020 15/15 Q1007 BECMG 32013KT RMK 1ST005 3CU010 6CU020 A2974

RJOO/ITM  -  大阪/伊丹

観測日時
2021-04-13 22:00 (UTC) (40分前)
気温
16
露点
15
湿数
1
相対湿度
93.8%
QNH
1008.8hPa
推定現地気圧
1007.4hPa
推定海面気圧
1008.8hPa
体感温度
9.3
(無風時)
17.9
HI
16.1
気温前日比
+1
体感温度前日比
+3.6
HI前日比
+1.5
水平視程
>10000m
鉛直視程
データなし
雲底高度
5000ft AGL
V/I
VMC (VFR)
RVR
No RVR data
卓越風
5kt from 320°
ガスト
No gust
降水
報告なし
その他の天気
報告なし
少しの(1/8) 層雲 @ 600ft AGL / 散在する(3/8) 積雲 @ 2000ft AGL / 隙間のある(5/8) 層積雲 @ 5000ft AGL

RJOO 132200Z 32005KT 9999 FEW006 SCT020 BKN050 16/15 Q1008 RMK 1ST006 3CU020 5SC050 A2979

RJBB/KIX  -  大阪/関西

観測日時
2021-04-13 22:00 (UTC) (40分前)
気温
15
露点
13
湿数
2
相対湿度
87.8%
QNH
1009hPa
推定現地気圧
1008.4hPa
推定海面気圧
1009.0hPa
体感温度
4.8
(無風時)
16.9
HI
14.8
気温前日比
±0
体感温度前日比
-2.1
HI前日比
+0.2
水平視程
>10000m
鉛直視程
データなし
雲底高度
2500ft AGL
V/I
VMC (VFR)
RVR
No RVR data
卓越風
12kt from 280°
ガスト
No gust
降水
報告なし
その他の天気
報告なし
少しの雲 @ 800ft AGL / 散在する雲 @ 1500ft AGL / 隙間のある雲 @ 2500ft AGL

RJBB 132200Z 28012KT 9999 FEW008 SCT015 BKN025 15/13 Q1009 NOSIG

RJFF/FUK  -  福岡

観測日時
2021-04-13 22:00 (UTC) (40分前)
気温
13
露点
7
湿数
6
相対湿度
66.9%
QNH
1014.6hPa
推定現地気圧
1013.5hPa
推定海面気圧
1014.6hPa
体感温度
4.1
(無風時)
15
HI
12.1
気温前日比
-4
体感温度前日比
-3.5
HI前日比
-5
水平視程
>10000m
鉛直視程
データなし
雲底高度
Unknown
V/I
判定不可
RVR
No RVR data
卓越風
8kt from 290° (260° ~ 320°) / 一時 15kt from 310°
ガスト
一時 25kt
降水
報告なし
その他の天気
報告なし
少しの(1/8) 積雲 @ 2500ft AGL / 散在する(3/8) 積雲 @ 3000ft AGL / 隙間のある雲 @ 不明な高さ

RJFF 132200Z 29008KT 260V320 9999 FEW025 SCT030 BKN/// 13/07 Q1014 TEMPO FM2300 31015G25KT RMK 1CU025 3CU030 A2996

ROAH/OKA  -  那覇

観測日時
2021-04-13 22:00 (UTC) (40分前)
気温
21
露点
18
湿数
3
相対湿度
83%
QNH
1014.6hPa
推定現地気圧
1014.2hPa
推定海面気圧
1014.6hPa
体感温度
13.9
(無風時)
21.8
HI
21.3
気温前日比
-1
体感温度前日比
-4.4
HI前日比
-1.4
水平視程
>10000m
鉛直視程
データなし
雲底高度
2000ft AGL
V/I
VMC (VFR)
RVR
No RVR data
卓越風
9kt from 40°
ガスト
No gust
降水
報告なし
その他の天気
報告なし
少しの(2/8) 積雲 @ 1300ft AGL / 隙間のある(6/8) 積雲 @ 2000ft AGL

ROAH 132200Z 04009KT 9999 FEW013 BKN020 21/18 Q1014 RMK 2CU013 6CU020 A2996

12.1msec